sensor_id;sensor_type;location;lat;lon;timestamp;P1;durP1;ratioP1;P2;durP2;ratioP2
62457;SDS011;48509;52.122;5.250;2023-07-09T00:00:44;13.7;;;9.6;;
62457;SDS011;48509;52.122;5.250;2023-07-09T00:02:21;14.6;;;9.6;;
62457;SDS011;48509;52.122;5.250;2023-07-09T00:03:59;14.3;;;9.31;;
62457;SDS011;48509;52.122;5.250;2023-07-09T00:05:35;14.0;;;9.4;;
62457;SDS011;48509;52.122;5.250;2023-07-09T00:08:55;16.5;;;9.5;;
62457;SDS011;48509;52.122;5.250;2023-07-09T00:10:31;12.7;;;9.21;;
62457;SDS011;48509;52.122;5.250;2023-07-09T00:12:07;14.5;;;8.81;;
62457;SDS011;48509;52.122;5.250;2023-07-09T00:15:25;15.6;;;9.71;;
62457;SDS011;48509;52.122;5.250;2023-07-09T00:17:04;12.9;;;9.1;;
62457;SDS011;48509;52.122;5.250;2023-07-09T00:18:45;13.6;;;9.1;;
62457;SDS011;48509;52.122;5.250;2023-07-09T00:23:34;13.2;;;9.4;;
62457;SDS011;48509;52.122;5.250;2023-07-09T00:25:11;12.9;;;9.6;;
62457;SDS011;48509;52.122;5.250;2023-07-09T00:26:48;14.5;;;9.21;;
62457;SDS011;48509;52.122;5.250;2023-07-09T00:30:02;14.6;;;9.31;;
62457;SDS011;48509;52.122;5.250;2023-07-09T00:31:39;14.7;;;9.9;;
62457;SDS011;48509;52.122;5.250;2023-07-09T00:33:16;10.0;;;8.9;;
62457;SDS011;48509;52.122;5.250;2023-07-09T00:34:53;12.7;;;9.5;;
62457;SDS011;48509;52.122;5.250;2023-07-09T00:38:11;16.5;;;10.1;;
62457;SDS011;48509;52.122;5.250;2023-07-09T00:39:49;14.3;;;9.71;;
62457;SDS011;48509;52.122;5.250;2023-07-09T00:41:26;12.4;;;9.0;;
62457;SDS011;48509;52.122;5.250;2023-07-09T00:44:51;14.4;;;9.4;;
62457;SDS011;48509;52.122;5.250;2023-07-09T00:47:37;14.1;;;10.0;;
62457;SDS011;48509;52.122;5.250;2023-07-09T00:49:26;13.9;;;9.6;;
62457;SDS011;48509;52.122;5.250;2023-07-09T00:51:07;12.7;;;9.71;;
62457;SDS011;48509;52.122;5.250;2023-07-09T00:52:49;11.0;;;9.0;;
62457;SDS011;48509;52.122;5.250;2023-07-09T00:54:28;10.9;;;9.31;;
62457;SDS011;48509;52.122;5.250;2023-07-09T00:56:09;12.4;;;8.9;;
62457;SDS011;48509;52.122;5.250;2023-07-09T00:57:49;12.9;;;9.81;;
62457;SDS011;48509;52.122;5.250;2023-07-09T01:01:09;12.2;;;9.4;;
62457;SDS011;48509;52.122;5.250;2023-07-09T01:02:49;14.7;;;10.0;;
62457;SDS011;48509;52.122;5.250;2023-07-09T01:04:25;15.2;;;8.9;;
62457;SDS011;48509;52.122;5.250;2023-07-09T01:07:39;13.7;;;8.81;;
62457;SDS011;48509;52.122;5.250;2023-07-09T01:09:17;13.1;;;9.9;;
62457;SDS011;48509;52.122;5.250;2023-07-09T01:10:54;12.0;;;9.81;;
62457;SDS011;48509;52.122;5.250;2023-07-09T01:12:31;12.6;;;9.5;;
62457;SDS011;48509;52.122;5.250;2023-07-09T01:15:48;14.3;;;9.31;;
62457;SDS011;48509;52.122;5.250;2023-07-09T01:17:24;12.6;;;9.71;;
62457;SDS011;48509;52.122;5.250;2023-07-09T01:19:02;15.9;;;9.6;;
62457;SDS011;48509;52.122;5.250;2023-07-09T01:22:18;13.4;;;9.6;;
62457;SDS011;48509;52.122;5.250;2023-07-09T01:23:56;13.0;;;9.5;;
62457;SDS011;48509;52.122;5.250;2023-07-09T01:25:33;12.7;;;9.0;;
62457;SDS011;48509;52.122;5.250;2023-07-09T01:27:21;13.4;;;9.71;;
62457;SDS011;48509;52.122;5.250;2023-07-09T01:30:38;12.4;;;9.71;;
62457;SDS011;48509;52.122;5.250;2023-07-09T01:32:17;15.6;;;10.0;;
62457;SDS011;48509;52.122;5.250;2023-07-09T01:33:55;13.2;;;9.9;;
62457;SDS011;48509;52.122;5.250;2023-07-09T01:35:33;15.1;;;9.1;;
62457;SDS011;48509;52.122;5.250;2023-07-09T01:38:50;13.2;;;9.4;;
62457;SDS011;48509;52.122;5.250;2023-07-09T01:40:28;12.1;;;9.31;;
62457;SDS011;48509;52.122;5.250;2023-07-09T01:42:06;12.7;;;9.9;;
62457;SDS011;48509;52.122;5.250;2023-07-09T01:45:22;15.9;;;10.4;;
62457;SDS011;48509;52.122;5.250;2023-07-09T01:46:59;11.2;;;9.31;;
62457;SDS011;48509;52.122;5.250;2023-07-09T01:48:35;12.4;;;9.5;;
62457;SDS011;48509;52.122;5.250;2023-07-09T01:50:12;13.4;;;10.4;;
62457;SDS011;48509;52.122;5.250;2023-07-09T01:53:25;15.1;;;10.4;;
62457;SDS011;48509;52.122;5.250;2023-07-09T01:55:03;16.5;;;10.3;;
62457;SDS011;48509;52.122;5.250;2023-07-09T01:56:39;14.7;;;9.9;;
62457;SDS011;48509;52.122;5.250;2023-07-09T01:59:53;12.4;;;9.5;;
62457;SDS011;48509;52.122;5.250;2023-07-09T02:01:31;14.1;;;10.21;;
62457;SDS011;48509;52.122;5.250;2023-07-09T02:03:08;14.3;;;10.5;;
62457;SDS011;48509;52.122;5.250;2023-07-09T02:04:45;12.6;;;10.1;;
62457;SDS011;48509;52.122;5.250;2023-07-09T02:07:58;16.0;;;10.9;;
62457;SDS011;48509;52.122;5.250;2023-07-09T02:09:36;12.5;;;10.0;;
62457;SDS011;48509;52.122;5.250;2023-07-09T02:11:13;13.7;;;9.9;;
62457;SDS011;48509;52.122;5.250;2023-07-09T02:14:27;14.2;;;10.21;;
62457;SDS011;48509;52.122;5.250;2023-07-09T02:16:04;17.2;;;10.0;;
62457;SDS011;48509;52.122;5.250;2023-07-09T02:17:40;15.1;;;10.0;;
62457;SDS011;48509;52.122;5.250;2023-07-09T02:20:53;14.4;;;9.9;;
62457;SDS011;48509;52.122;5.250;2023-07-09T02:22:31;14.7;;;10.4;;
62457;SDS011;48509;52.122;5.250;2023-07-09T02:24:08;16.9;;;10.4;;
62457;SDS011;48509;52.122;5.250;2023-07-09T02:25:44;17.3;;;10.5;;
62457;SDS011;48509;52.122;5.250;2023-07-09T02:28:57;13.0;;;9.9;;
62457;SDS011;48509;52.122;5.250;2023-07-09T02:30:33;14.2;;;10.6;;
62457;SDS011;48509;52.122;5.250;2023-07-09T02:32:09;12.8;;;10.21;;
62457;SDS011;48509;52.122;5.250;2023-07-09T02:35:30;18.11;;;10.21;;
62457;SDS011;48509;52.122;5.250;2023-07-09T02:37:07;14.2;;;10.21;;
62457;SDS011;48509;52.122;5.250;2023-07-09T02:38:44;11.5;;;10.0;;
62457;SDS011;48509;52.122;5.250;2023-07-09T02:40:20;15.8;;;9.9;;
62457;SDS011;48509;52.122;5.250;2023-07-09T02:43:32;15.5;;;10.21;;
62457;SDS011;48509;52.122;5.250;2023-07-09T02:45:09;14.2;;;10.3;;
62457;SDS011;48509;52.122;5.250;2023-07-09T02:46:46;13.5;;;9.9;;
62457;SDS011;48509;52.122;5.250;2023-07-09T02:49:59;12.7;;;10.0;;
62457;SDS011;48509;52.122;5.250;2023-07-09T02:51:35;12.7;;;9.9;;
62457;SDS011;48509;52.122;5.250;2023-07-09T02:53:12;11.7;;;9.9;;
62457;SDS011;48509;52.122;5.250;2023-07-09T02:56:25;14.4;;;10.4;;
62457;SDS011;48509;52.122;5.250;2023-07-09T02:58:02;14.1;;;10.4;;
62457;SDS011;48509;52.122;5.250;2023-07-09T02:59:38;15.0;;;10.3;;
62457;SDS011;48509;52.122;5.250;2023-07-09T03:01:15;14.2;;;10.4;;
62457;SDS011;48509;52.122;5.250;2023-07-09T03:04:29;15.3;;;10.6;;
62457;SDS011;48509;52.122;5.250;2023-07-09T03:07:43;14.8;;;10.6;;
62457;SDS011;48509;52.122;5.250;2023-07-09T03:10:56;12.2;;;10.1;;
62457;SDS011;48509;52.122;5.250;2023-07-09T03:12:33;14.5;;;10.4;;
62457;SDS011;48509;52.122;5.250;2023-07-09T03:14:09;15.0;;;10.1;;
62457;SDS011;48509;52.122;5.250;2023-07-09T03:17:30;15.4;;;10.0;;
62457;SDS011;48509;52.122;5.250;2023-07-09T03:19:07;14.4;;;10.5;;
62457;SDS011;48509;52.122;5.250;2023-07-09T03:20:44;13.7;;;9.9;;
62457;SDS011;48509;52.122;5.250;2023-07-09T03:22:20;14.3;;;11.0;;
62457;SDS011;48509;52.122;5.250;2023-07-09T03:25:34;15.2;;;10.5;;
62457;SDS011;48509;52.122;5.250;2023-07-09T03:27:16;14.9;;;11.2;;
62457;SDS011;48509;52.122;5.250;2023-07-09T03:28:53;15.7;;;11.6;;
62457;SDS011;48509;52.122;5.250;2023-07-09T03:32:06;16.9;;;10.8;;
62457;SDS011;48509;52.122;5.250;2023-07-09T03:33:43;14.0;;;10.5;;
62457;SDS011;48509;52.122;5.250;2023-07-09T03:35:21;14.3;;;11.1;;
62457;SDS011;48509;52.122;5.250;2023-07-09T03:36:57;15.9;;;10.4;;
62457;SDS011;48509;52.122;5.250;2023-07-09T03:40:10;18.2;;;11.5;;
62457;SDS011;48509;52.122;5.250;2023-07-09T03:41:46;14.6;;;11.0;;
62457;SDS011;48509;52.122;5.250;2023-07-09T03:43:23;13.0;;;10.9;;
62457;SDS011;48509;52.122;5.250;2023-07-09T03:46:36;15.5;;;10.7;;
62457;SDS011;48509;52.122;5.250;2023-07-09T03:48:13;15.7;;;10.8;;
62457;SDS011;48509;52.122;5.250;2023-07-09T03:49:50;14.0;;;10.7;;
62457;SDS011;48509;52.122;5.250;2023-07-09T03:51:26;17.8;;;11.3;;
62457;SDS011;48509;52.122;5.250;2023-07-09T03:54:40;15.9;;;11.1;;
62457;SDS011;48509;52.122;5.250;2023-07-09T03:56:17;14.5;;;11.2;;
62457;SDS011;48509;52.122;5.250;2023-07-09T03:57:53;14.9;;;11.0;;
62457;SDS011;48509;52.122;5.250;2023-07-09T04:01:07;17.7;;;11.4;;
62457;SDS011;48509;52.122;5.250;2023-07-09T04:02:43;15.3;;;11.2;;
62457;SDS011;48509;52.122;5.250;2023-07-09T04:04:19;15.3;;;10.9;;
62457;SDS011;48509;52.122;5.250;2023-07-09T04:07:32;14.9;;;11.1;;
62457;SDS011;48509;52.122;5.250;2023-07-09T04:09:09;16.8;;;11.5;;
62457;SDS011;48509;52.122;5.250;2023-07-09T04:10:45;15.4;;;11.3;;
62457;SDS011;48509;52.122;5.250;2023-07-09T04:12:22;19.3;;;11.5;;
62457;SDS011;48509;52.122;5.250;2023-07-09T04:15:34;13.7;;;10.4;;
62457;SDS011;48509;52.122;5.250;2023-07-09T04:17:10;19.0;;;11.7;;
62457;SDS011;48509;52.122;5.250;2023-07-09T04:18:47;14.5;;;10.8;;
62457;SDS011;48509;52.122;5.250;2023-07-09T04:22:01;15.6;;;11.2;;
62457;SDS011;48509;52.122;5.250;2023-07-09T04:23:37;16.61;;;10.8;;
62457;SDS011;48509;52.122;5.250;2023-07-09T04:25:13;16.3;;;11.6;;
62457;SDS011;48509;52.122;5.250;2023-07-09T04:28:25;15.2;;;11.3;;
62457;SDS011;48509;52.122;5.250;2023-07-09T04:30:03;15.2;;;10.9;;
62457;SDS011;48509;52.122;5.250;2023-07-09T04:31:40;18.11;;;10.8;;
62457;SDS011;48509;52.122;5.250;2023-07-09T04:33:17;15.8;;;11.4;;
62457;SDS011;48509;52.122;5.250;2023-07-09T04:36:31;15.3;;;11.1;;
62457;SDS011;48509;52.122;5.250;2023-07-09T04:38:08;15.0;;;10.8;;
62457;SDS011;48509;52.122;5.250;2023-07-09T04:39:44;15.6;;;10.0;;
62457;SDS011;48509;52.122;5.250;2023-07-09T04:42:56;14.6;;;10.9;;
62457;SDS011;48509;52.122;5.250;2023-07-09T04:44:33;13.4;;;10.9;;
62457;SDS011;48509;52.122;5.250;2023-07-09T04:46:10;13.9;;;10.6;;
62457;SDS011;48509;52.122;5.250;2023-07-09T04:49:22;13.7;;;10.6;;
62457;SDS011;48509;52.122;5.250;2023-07-09T04:50:58;15.6;;;10.9;;
62457;SDS011;48509;52.122;5.250;2023-07-09T04:52:34;14.2;;;10.21;;
62457;SDS011;48509;52.122;5.250;2023-07-09T04:54:11;16.0;;;10.21;;
62457;SDS011;48509;52.122;5.250;2023-07-09T04:57:24;15.3;;;10.1;;
62457;SDS011;48509;52.122;5.250;2023-07-09T04:59:01;12.4;;;9.71;;
62457;SDS011;48509;52.122;5.250;2023-07-09T05:00:37;16.7;;;10.1;;
62457;SDS011;48509;52.122;5.250;2023-07-09T05:03:49;14.3;;;11.0;;
62457;SDS011;48509;52.122;5.250;2023-07-09T05:05:26;14.5;;;10.8;;
62457;SDS011;48509;52.122;5.250;2023-07-09T05:07:02;15.6;;;10.9;;
62457;SDS011;48509;52.122;5.250;2023-07-09T05:10:16;17.3;;;11.0;;
62457;SDS011;48509;52.122;5.250;2023-07-09T05:11:52;14.1;;;9.9;;
62457;SDS011;48509;52.122;5.250;2023-07-09T05:13:28;13.1;;;9.9;;
62457;SDS011;48509;52.122;5.250;2023-07-09T05:16:41;15.0;;;10.4;;
62457;SDS011;48509;52.122;5.250;2023-07-09T05:18:18;14.3;;;10.8;;
62457;SDS011;48509;52.122;5.250;2023-07-09T05:19:55;16.2;;;11.1;;
62457;SDS011;48509;52.122;5.250;2023-07-09T05:21:33;17.0;;;11.2;;
62457;SDS011;48509;52.122;5.250;2023-07-09T05:24:47;16.4;;;10.7;;
62457;SDS011;48509;52.122;5.250;2023-07-09T05:26:24;15.2;;;11.0;;
62457;SDS011;48509;52.122;5.250;2023-07-09T05:28:00;15.5;;;10.9;;
62457;SDS011;48509;52.122;5.250;2023-07-09T05:31:14;13.0;;;10.8;;
62457;SDS011;48509;52.122;5.250;2023-07-09T05:32:51;15.7;;;10.4;;
62457;SDS011;48509;52.122;5.250;2023-07-09T05:34:28;19.11;;;11.5;;
62457;SDS011;48509;52.122;5.250;2023-07-09T05:36:05;13.9;;;10.7;;
62457;SDS011;48509;52.122;5.250;2023-07-09T05:39:18;15.1;;;10.9;;
62457;SDS011;48509;52.122;5.250;2023-07-09T05:40:59;15.5;;;11.0;;
62457;SDS011;48509;52.122;5.250;2023-07-09T05:42:36;16.4;;;11.0;;
62457;SDS011;48509;52.122;5.250;2023-07-09T05:45:49;13.0;;;10.4;;
62457;SDS011;48509;52.122;5.250;2023-07-09T05:47:25;13.5;;;10.6;;
62457;SDS011;48509;52.122;5.250;2023-07-09T05:49:02;12.8;;;10.7;;
62457;SDS011;48509;52.122;5.250;2023-07-09T05:50:40;15.5;;;10.6;;
62457;SDS011;48509;52.122;5.250;2023-07-09T05:53:56;15.2;;;10.21;;
62457;SDS011;48509;52.122;5.250;2023-07-09T05:55:33;15.6;;;10.8;;
62457;SDS011;48509;52.122;5.250;2023-07-09T05:57:10;16.8;;;11.2;;
62457;SDS011;48509;52.122;5.250;2023-07-09T06:00:24;14.4;;;10.6;;
62457;SDS011;48509;52.122;5.250;2023-07-09T06:02:00;13.1;;;10.3;;
62457;SDS011;48509;52.122;5.250;2023-07-09T06:03:37;14.1;;;10.7;;
62457;SDS011;48509;52.122;5.250;2023-07-09T06:06:50;13.9;;;10.1;;
62457;SDS011;48509;52.122;5.250;2023-07-09T06:08:26;14.1;;;10.4;;
62457;SDS011;48509;52.122;5.250;2023-07-09T06:10:04;13.8;;;11.0;;
62457;SDS011;48509;52.122;5.250;2023-07-09T06:11:41;14.2;;;10.3;;
62457;SDS011;48509;52.122;5.250;2023-07-09T06:14:55;14.8;;;10.3;;
62457;SDS011;48509;52.122;5.250;2023-07-09T06:16:32;12.4;;;10.21;;
62457;SDS011;48509;52.122;5.250;2023-07-09T06:18:08;13.3;;;10.3;;
62457;SDS011;48509;52.122;5.250;2023-07-09T06:21:22;13.9;;;10.3;;
62457;SDS011;48509;52.122;5.250;2023-07-09T06:22:59;14.5;;;10.4;;
62457;SDS011;48509;52.122;5.250;2023-07-09T06:24:35;15.0;;;10.9;;
62457;SDS011;48509;52.122;5.250;2023-07-09T06:27:48;12.6;;;10.9;;
62457;SDS011;48509;52.122;5.250;2023-07-09T06:29:25;15.0;;;11.1;;
62457;SDS011;48509;52.122;5.250;2023-07-09T06:31:02;15.8;;;11.0;;
62457;SDS011;48509;52.122;5.250;2023-07-09T06:32:39;14.8;;;10.8;;
62457;SDS011;48509;52.122;5.250;2023-07-09T06:35:52;15.8;;;11.5;;
62457;SDS011;48509;52.122;5.250;2023-07-09T06:37:32;13.4;;;10.6;;
62457;SDS011;48509;52.122;5.250;2023-07-09T06:39:08;13.4;;;10.6;;
62457;SDS011;48509;52.122;5.250;2023-07-09T06:42:22;14.4;;;10.8;;
62457;SDS011;48509;52.122;5.250;2023-07-09T06:43:59;18.11;;;10.8;;
62457;SDS011;48509;52.122;5.250;2023-07-09T06:45:35;15.5;;;11.3;;
62457;SDS011;48509;52.122;5.250;2023-07-09T06:47:13;13.6;;;10.8;;
62457;SDS011;48509;52.122;5.250;2023-07-09T06:50:27;18.0;;;11.4;;
62457;SDS011;48509;52.122;5.250;2023-07-09T06:53:41;15.6;;;10.8;;
62457;SDS011;48509;52.122;5.250;2023-07-09T06:56:55;18.2;;;11.6;;
62457;SDS011;48509;52.122;5.250;2023-07-09T06:58:31;16.2;;;11.1;;
62457;SDS011;48509;52.122;5.250;2023-07-09T07:00:09;15.2;;;11.8;;
62457;SDS011;48509;52.122;5.250;2023-07-09T07:01:48;14.1;;;11.1;;
62457;SDS011;48509;52.122;5.250;2023-07-09T07:05:02;14.8;;;11.6;;
62457;SDS011;48509;52.122;5.250;2023-07-09T07:06:39;15.8;;;11.9;;
62457;SDS011;48509;52.122;5.250;2023-07-09T07:08:15;14.4;;;11.7;;
62457;SDS011;48509;52.122;5.250;2023-07-09T07:11:31;15.7;;;11.7;;
62457;SDS011;48509;52.122;5.250;2023-07-09T07:13:08;14.4;;;11.1;;
62457;SDS011;48509;52.122;5.250;2023-07-09T07:14:46;18.41;;;11.8;;
62457;SDS011;48509;52.122;5.250;2023-07-09T07:17:58;16.3;;;11.5;;
62457;SDS011;48509;52.122;5.250;2023-07-09T07:19:34;11.8;;;10.0;;
62457;SDS011;48509;52.122;5.250;2023-07-09T07:21:10;16.0;;;10.8;;
62457;SDS011;48509;52.122;5.250;2023-07-09T07:22:48;17.5;;;11.2;;
62457;SDS011;48509;52.122;5.250;2023-07-09T07:26:00;16.11;;;11.6;;
62457;SDS011;48509;52.122;5.250;2023-07-09T07:27:37;14.6;;;11.0;;
62457;SDS011;48509;52.122;5.250;2023-07-09T07:29:14;14.6;;;11.4;;
62457;SDS011;48509;52.122;5.250;2023-07-09T07:32:36;14.2;;;11.3;;
62457;SDS011;48509;52.122;5.250;2023-07-09T07:34:13;13.4;;;10.3;;
62457;SDS011;48509;52.122;5.250;2023-07-09T07:35:50;12.8;;;10.1;;
62457;SDS011;48509;52.122;5.250;2023-07-09T07:37:27;16.2;;;10.5;;
62457;SDS011;48509;52.122;5.250;2023-07-09T07:40:43;14.7;;;9.9;;
62457;SDS011;48509;52.122;5.250;2023-07-09T07:42:20;11.0;;;9.1;;
62457;SDS011;48509;52.122;5.250;2023-07-09T07:43:58;14.2;;;9.6;;
62457;SDS011;48509;52.122;5.250;2023-07-09T07:47:10;13.1;;;10.1;;
62457;SDS011;48509;52.122;5.250;2023-07-09T07:48:47;18.91;;;11.3;;
62457;SDS011;48509;52.122;5.250;2023-07-09T07:50:23;12.9;;;9.9;;
62457;SDS011;48509;52.122;5.250;2023-07-09T07:52:01;11.8;;;9.9;;
62457;SDS011;48509;52.122;5.250;2023-07-09T07:55:15;13.9;;;9.1;;
62457;SDS011;48509;52.122;5.250;2023-07-09T07:56:52;12.7;;;8.9;;
62457;SDS011;48509;52.122;5.250;2023-07-09T07:58:28;13.5;;;8.9;;
62457;SDS011;48509;52.122;5.250;2023-07-09T08:01:44;13.2;;;9.21;;
62457;SDS011;48509;52.122;5.250;2023-07-09T08:03:20;11.4;;;8.6;;
62457;SDS011;48509;52.122;5.250;2023-07-09T08:04:57;14.9;;;9.0;;
62457;SDS011;48509;52.122;5.250;2023-07-09T08:09:47;13.8;;;9.81;;
62457;SDS011;48509;52.122;5.250;2023-07-09T08:11:22;18.3;;;11.2;;
62457;SDS011;48509;52.122;5.250;2023-07-09T08:13:00;17.11;;;10.8;;
62457;SDS011;48509;52.122;5.250;2023-07-09T08:16:15;18.8;;;12.6;;
62457;SDS011;48509;52.122;5.250;2023-07-09T08:17:53;17.3;;;11.6;;
62457;SDS011;48509;52.122;5.250;2023-07-09T08:19:30;15.5;;;11.6;;
62457;SDS011;48509;52.122;5.250;2023-07-09T08:22:44;19.41;;;11.7;;
62457;SDS011;48509;52.122;5.250;2023-07-09T08:24:21;15.0;;;11.3;;
62457;SDS011;48509;52.122;5.250;2023-07-09T08:25:58;18.3;;;12.5;;
62457;SDS011;48509;52.122;5.250;2023-07-09T08:27:37;19.3;;;11.9;;
62457;SDS011;48509;52.122;5.250;2023-07-09T08:30:51;20.5;;;12.3;;
62457;SDS011;48509;52.122;5.250;2023-07-09T08:32:28;15.9;;;11.9;;
62457;SDS011;48509;52.122;5.250;2023-07-09T08:34:05;16.3;;;12.5;;
62457;SDS011;48509;52.122;5.250;2023-07-09T08:37:19;15.4;;;10.9;;
62457;SDS011;48509;52.122;5.250;2023-07-09T08:38:57;15.0;;;11.5;;
62457;SDS011;48509;52.122;5.250;2023-07-09T08:40:33;13.2;;;10.1;;
62457;SDS011;48509;52.122;5.250;2023-07-09T08:42:16;13.2;;;10.1;;
62457;SDS011;48509;52.122;5.250;2023-07-09T08:45:57;20.0;;;11.8;;
62457;SDS011;48509;52.122;5.250;2023-07-09T08:47:41;14.5;;;10.9;;
62457;SDS011;48509;52.122;5.250;2023-07-09T08:49:33;14.4;;;11.8;;
62457;SDS011;48509;52.122;5.250;2023-07-09T08:51:19;15.0;;;11.6;;
62457;SDS011;48509;52.122;5.250;2023-07-09T08:53:05;17.7;;;10.8;;
62457;SDS011;48509;52.122;5.250;2023-07-09T08:54:53;14.5;;;10.4;;
62457;SDS011;48509;52.122;5.250;2023-07-09T08:58:11;16.0;;;10.6;;
62457;SDS011;48509;52.122;5.250;2023-07-09T08:59:54;15.2;;;10.7;;
62457;SDS011;48509;52.122;5.250;2023-07-09T09:01:47;13.2;;;10.3;;
62457;SDS011;48509;52.122;5.250;2023-07-09T09:03:28;17.5;;;11.0;;
62457;SDS011;48509;52.122;5.250;2023-07-09T09:06:57;13.1;;;10.1;;
62457;SDS011;48509;52.122;5.250;2023-07-09T09:08:51;13.9;;;10.0;;
62457;SDS011;48509;52.122;5.250;2023-07-09T09:10:39;18.2;;;10.8;;
62457;SDS011;48509;52.122;5.250;2023-07-09T09:12:23;15.0;;;10.21;;
62457;SDS011;48509;52.122;5.250;2023-07-09T09:14:05;14.7;;;9.71;;
62457;SDS011;48509;52.122;5.250;2023-07-09T09:15:55;13.1;;;9.9;;
62457;SDS011;48509;52.122;5.250;2023-07-09T09:19:25;13.0;;;11.2;;
62457;SDS011;48509;52.122;5.250;2023-07-09T09:21:08;15.8;;;11.1;;
62457;SDS011;48509;52.122;5.250;2023-07-09T09:22:56;15.6;;;11.3;;
62457;SDS011;48509;52.122;5.250;2023-07-09T09:24:51;17.11;;;11.9;;
62457;SDS011;48509;52.122;5.250;2023-07-09T09:26:34;19.91;;;11.9;;
62457;SDS011;48509;52.122;5.250;2023-07-09T09:29:49;17.7;;;12.2;;
62457;SDS011;48509;52.122;5.250;2023-07-09T09:31:26;18.0;;;13.1;;
62457;SDS011;48509;52.122;5.250;2023-07-09T09:33:06;18.7;;;12.9;;
62457;SDS011;48509;52.122;5.250;2023-07-09T09:34:45;16.11;;;11.2;;
62457;SDS011;48509;52.122;5.250;2023-07-09T09:38:02;17.7;;;11.1;;
62457;SDS011;48509;52.122;5.250;2023-07-09T09:39:45;17.91;;;12.5;;
62457;SDS011;48509;52.122;5.250;2023-07-09T09:41:23;15.3;;;11.4;;
62457;SDS011;48509;52.122;5.250;2023-07-09T09:43:11;17.3;;;11.9;;
62457;SDS011;48509;52.122;5.250;2023-07-09T09:46:31;17.8;;;12.1;;
62457;SDS011;48509;52.122;5.250;2023-07-09T09:48:11;20.41;;;15.3;;
62457;SDS011;48509;52.122;5.250;2023-07-09T09:49:52;20.8;;;14.6;;
62457;SDS011;48509;52.122;5.250;2023-07-09T09:51:29;17.5;;;14.6;;
62457;SDS011;48509;52.122;5.250;2023-07-09T09:54:47;16.61;;;12.4;;
62457;SDS011;48509;52.122;5.250;2023-07-09T09:56:28;27.0;;;16.61;;
62457;SDS011;48509;52.122;5.250;2023-07-09T09:58:11;20.6;;;14.2;;
62457;SDS011;48509;52.122;5.250;2023-07-09T09:59:49;23.7;;;14.7;;
62457;SDS011;48509;52.122;5.250;2023-07-09T10:03:08;20.5;;;14.7;;
62457;SDS011;48509;52.122;5.250;2023-07-09T10:04:45;19.8;;;14.5;;
62457;SDS011;48509;52.122;5.250;2023-07-09T10:06:25;19.2;;;13.7;;
62457;SDS011;48509;52.122;5.250;2023-07-09T10:08:14;18.8;;;14.0;;
62457;SDS011;48509;52.122;5.250;2023-07-09T10:11:39;23.9;;;17.41;;
62457;SDS011;48509;52.122;5.250;2023-07-09T10:13:23;19.0;;;14.4;;
62457;SDS011;48509;52.122;5.250;2023-07-09T10:15:09;25.9;;;17.0;;
62457;SDS011;48509;52.122;5.250;2023-07-09T10:16:58;24.2;;;17.3;;
62457;SDS011;48509;52.122;5.250;2023-07-09T10:18:43;20.0;;;15.5;;
62457;SDS011;48509;52.122;5.250;2023-07-09T10:22:12;19.8;;;13.0;;
62457;SDS011;48509;52.122;5.250;2023-07-09T10:24:00;22.1;;;15.4;;
62457;SDS011;48509;52.122;5.250;2023-07-09T10:26:06;18.2;;;13.8;;
62457;SDS011;48509;52.122;5.250;2023-07-09T10:27:53;18.5;;;12.8;;
62457;SDS011;48509;52.122;5.250;2023-07-09T10:30:24;16.7;;;12.3;;
62457;SDS011;48509;52.122;5.250;2023-07-09T10:32:19;14.4;;;12.0;;
62457;SDS011;48509;52.122;5.250;2023-07-09T10:34:15;19.3;;;13.8;;
62457;SDS011;48509;52.122;5.250;2023-07-09T10:36:12;20.6;;;15.1;;
62457;SDS011;48509;52.122;5.250;2023-07-09T10:38:13;17.2;;;12.3;;
62457;SDS011;48509;52.122;5.250;2023-07-09T10:40:14;16.2;;;12.4;;
62457;SDS011;48509;52.122;5.250;2023-07-09T10:42:00;21.6;;;13.2;;
62457;SDS011;48509;52.122;5.250;2023-07-09T10:43:41;17.41;;;12.9;;
62457;SDS011;48509;52.122;5.250;2023-07-09T10:47:09;16.2;;;12.0;;
62457;SDS011;48509;52.122;5.250;2023-07-09T10:49:04;17.41;;;13.3;;
62457;SDS011;48509;52.122;5.250;2023-07-09T10:50:46;14.1;;;11.0;;
62457;SDS011;48509;52.122;5.250;2023-07-09T10:52:27;22.2;;;12.7;;
62457;SDS011;48509;52.122;5.250;2023-07-09T10:54:10;15.9;;;12.2;;
62457;SDS011;48509;52.122;5.250;2023-07-09T10:57:41;15.7;;;11.3;;
62457;SDS011;48509;52.122;5.250;2023-07-09T10:59:22;15.1;;;11.9;;
62457;SDS011;48509;52.122;5.250;2023-07-09T11:01:05;19.5;;;12.9;;
62457;SDS011;48509;52.122;5.250;2023-07-09T11:02:42;15.9;;;11.5;;
62457;SDS011;48509;52.122;5.250;2023-07-09T11:06:13;22.1;;;13.2;;
62457;SDS011;48509;52.122;5.250;2023-07-09T11:07:57;17.11;;;13.4;;
62457;SDS011;48509;52.122;5.250;2023-07-09T11:09:39;18.11;;;12.9;;
62457;SDS011;48509;52.122;5.250;2023-07-09T11:11:22;17.0;;;12.5;;
62457;SDS011;48509;52.122;5.250;2023-07-09T11:13:10;22.0;;;14.1;;
62457;SDS011;48509;52.122;5.250;2023-07-09T11:16:35;19.5;;;12.7;;
62457;SDS011;48509;52.122;5.250;2023-07-09T11:18:19;17.91;;;11.7;;
62457;SDS011;48509;52.122;5.250;2023-07-09T11:20:16;18.2;;;13.3;;
62457;SDS011;48509;52.122;5.250;2023-07-09T11:21:57;19.5;;;12.8;;
62457;SDS011;48509;52.122;5.250;2023-07-09T11:23:44;20.41;;;13.6;;
62457;SDS011;48509;52.122;5.250;2023-07-09T11:25:27;16.8;;;12.5;;
62457;SDS011;48509;52.122;5.250;2023-07-09T11:29:08;18.0;;;12.8;;
62457;SDS011;48509;52.122;5.250;2023-07-09T11:30:51;22.8;;;14.3;;
62457;SDS011;48509;52.122;5.250;2023-07-09T11:32:29;17.91;;;12.5;;
62457;SDS011;48509;52.122;5.250;2023-07-09T11:34:08;14.0;;;11.2;;
62457;SDS011;48509;52.122;5.250;2023-07-09T11:37:25;20.9;;;13.2;;
62457;SDS011;48509;52.122;5.250;2023-07-09T11:39:02;17.41;;;12.1;;
62457;SDS011;48509;52.122;5.250;2023-07-09T11:40:45;15.9;;;11.1;;
62457;SDS011;48509;52.122;5.250;2023-07-09T11:42:23;16.0;;;11.7;;
62457;SDS011;48509;52.122;5.250;2023-07-09T11:45:54;15.6;;;10.8;;
62457;SDS011;48509;52.122;5.250;2023-07-09T11:47:34;13.1;;;10.3;;
62457;SDS011;48509;52.122;5.250;2023-07-09T11:49:17;17.41;;;11.1;;
62457;SDS011;48509;52.122;5.250;2023-07-09T11:50:57;14.5;;;10.8;;
62457;SDS011;48509;52.122;5.250;2023-07-09T11:52:47;13.0;;;9.4;;
62457;SDS011;48509;52.122;5.250;2023-07-09T11:56:11;16.7;;;11.4;;
62457;SDS011;48509;52.122;5.250;2023-07-09T11:57:48;16.9;;;11.5;;
62457;SDS011;48509;52.122;5.250;2023-07-09T11:59:28;13.0;;;9.9;;
62457;SDS011;48509;52.122;5.250;2023-07-09T12:01:09;12.2;;;9.6;;
62457;SDS011;48509;52.122;5.250;2023-07-09T12:04:30;13.9;;;9.71;;
62457;SDS011;48509;52.122;5.250;2023-07-09T12:06:15;13.9;;;9.71;;
62457;SDS011;48509;52.122;5.250;2023-07-09T12:07:56;14.4;;;10.0;;
62457;SDS011;48509;52.122;5.250;2023-07-09T12:09:37;11.2;;;8.5;;
62457;SDS011;48509;52.122;5.250;2023-07-09T12:12:56;12.5;;;8.9;;
62457;SDS011;48509;52.122;5.250;2023-07-09T12:14:34;15.1;;;9.1;;
62457;SDS011;48509;52.122;5.250;2023-07-09T12:16:20;14.4;;;8.9;;
62457;SDS011;48509;52.122;5.250;2023-07-09T12:18:09;12.6;;;9.0;;
62457;SDS011;48509;52.122;5.250;2023-07-09T12:19:50;10.8;;;8.9;;
62457;SDS011;48509;52.122;5.250;2023-07-09T12:23:16;12.7;;;8.9;;
62457;SDS011;48509;52.122;5.250;2023-07-09T12:25:07;14.0;;;9.71;;
62457;SDS011;48509;52.122;5.250;2023-07-09T12:26:57;15.6;;;9.6;;
62457;SDS011;48509;52.122;5.250;2023-07-09T12:28:35;12.1;;;8.71;;
62457;SDS011;48509;52.122;5.250;2023-07-09T12:31:49;10.3;;;8.0;;
62457;SDS011;48509;52.122;5.250;2023-07-09T12:33:26;12.5;;;9.9;;
62457;SDS011;48509;52.122;5.250;2023-07-09T12:35:03;11.6;;;8.31;;
62457;SDS011;48509;52.122;5.250;2023-07-09T12:36:41;10.9;;;8.4;;
62457;SDS011;48509;52.122;5.250;2023-07-09T12:40:08;14.1;;;7.8;;
62457;SDS011;48509;52.122;5.250;2023-07-09T12:41:50;10.5;;;8.0;;
62457;SDS011;48509;52.122;5.250;2023-07-09T12:43:31;11.8;;;7.6;;